createdAt,value
2023-02-26T00:01:07.842Z,0
2023-02-26T00:02:23.791Z,0
2023-02-26T00:03:40.235Z,0
2023-02-26T00:04:56.183Z,0
2023-02-26T00:06:03.000Z,0
2023-02-26T00:07:26.619Z,0
2023-02-26T00:08:35.000Z,0
2023-02-26T00:09:58.293Z,0
2023-02-26T00:11:13.495Z,0
2023-02-26T00:12:29.447Z,0
2023-02-26T00:13:45.890Z,0
2023-02-26T00:15:02.082Z,0
2023-02-26T00:16:10.000Z,0
2023-02-26T00:17:34.233Z,0
2023-02-26T00:18:50.430Z,0
2023-02-26T00:20:06.626Z,0
2023-02-26T00:21:22.823Z,0
2023-02-26T00:22:39.260Z,0
2023-02-26T00:23:55.215Z,0
2023-02-26T00:25:10.432Z,0
2023-02-26T00:26:26.629Z,0
2023-02-26T00:27:43.070Z,0
2023-02-26T00:28:59.021Z,0
2023-02-26T00:30:15.217Z,0
2023-02-26T00:31:06.000Z,0
2023-02-26T00:31:31.414Z,0
2023-02-26T00:32:47.859Z,0
2023-02-26T00:34:04.056Z,0
2023-02-26T00:35:12.000Z,0
2023-02-26T00:37:42.000Z,0
2023-02-26T00:39:06.878Z,0
2023-02-26T00:40:21.858Z,0
2023-02-26T00:41:37.071Z,0
2023-02-26T00:42:53.267Z,0
2023-02-26T00:44:09.464Z,0
2023-02-26T00:45:25.660Z,0
2023-02-26T00:46:34.000Z,0
2023-02-26T00:47:58.300Z,0
2023-02-26T00:49:14.495Z,0
2023-02-26T00:50:30.445Z,0
2023-02-26T00:51:46.641Z,0
2023-02-26T00:53:02.837Z,0
2023-02-26T00:54:19.034Z,0
2023-02-26T00:55:35.483Z,0
2023-02-26T00:56:51.427Z,0
2023-02-26T00:58:06.638Z,0
2023-02-26T00:59:22.835Z,0
2023-02-26T01:00:39.031Z,0
2023-02-26T01:01:47.000Z,0
2023-02-26T01:03:11.425Z,0
2023-02-26T01:04:27.866Z,0
2023-02-26T01:05:43.818Z,0
2023-02-26T01:06:59.041Z,0
2023-02-26T01:08:06.000Z,0
2023-02-26T01:09:29.477Z,0
2023-02-26T01:10:44.689Z,0
2023-02-26T01:12:00.886Z,0
2023-02-26T01:13:17.331Z,0
2023-02-26T01:14:25.615Z,0
2023-02-26T01:15:49.475Z,0
2023-02-26T01:17:05.921Z,0
2023-02-26T01:18:21.867Z,0
2023-02-26T01:19:38.320Z,0
2023-02-26T01:20:54.260Z,0
2023-02-26T01:22:02.000Z,0
2023-02-26T01:23:26.652Z,0
2023-02-26T01:24:42.849Z,0
2023-02-26T01:25:59.291Z,0
2023-02-26T01:27:06.000Z,0
2023-02-26T01:28:30.453Z,0
2023-02-26T01:29:46.650Z,0
2023-02-26T01:31:02.846Z,0
2023-02-26T01:32:19.042Z,0
2023-02-26T01:33:27.000Z,0
2023-02-26T01:34:51.435Z,0
2023-02-26T01:36:06.658Z,0
2023-02-26T01:37:14.000Z,0
2023-02-26T01:38:38.066Z,0
2023-02-26T01:39:54.503Z,0
2023-02-26T01:41:01.000Z,0
2023-02-26T01:42:24.698Z,0
2023-02-26T01:43:33.000Z,0
2023-02-26T01:44:57.091Z,0
2023-02-26T01:46:13.288Z,0
2023-02-26T01:47:29.484Z,0
2023-02-26T01:48:45.929Z,0
2023-02-26T01:50:01.878Z,0
2023-02-26T01:51:18.073Z,0
2023-02-26T01:52:26.000Z,0
2023-02-26T01:53:50.466Z,0
2023-02-26T01:55:06.663Z,0
2023-02-26T01:56:22.859Z,0
2023-02-26T01:57:39.057Z,0
2023-02-26T01:58:54.513Z,0
2023-02-26T02:00:10.466Z,0
2023-02-26T02:01:26.906Z,0
2023-02-26T02:02:43.103Z,0
2023-02-26T02:03:59.299Z,0
2023-02-26T02:05:15.502Z,0
2023-02-26T02:06:31.446Z,0
2023-02-26T02:07:46.908Z,0
2023-02-26T02:09:01.881Z,0
2023-02-26T02:10:17.104Z,0
2023-02-26T02:11:32.316Z,0
2023-02-26T02:12:48.513Z,0
2023-02-26T02:14:04.710Z,0
2023-02-26T02:15:13.000Z,0
2023-02-26T02:16:37.356Z,0
2023-02-26T02:17:53.552Z,0
2023-02-26T02:19:09.497Z,0
2023-02-26T02:20:25.937Z,0
2023-02-26T02:21:41.889Z,0
2023-02-26T02:22:50.000Z,0
2023-02-26T02:24:14.284Z,0
2023-02-26T02:25:22.000Z,0
2023-02-26T02:26:46.678Z,0
2023-02-26T02:28:01.891Z,0
2023-02-26T02:29:18.345Z,0
2023-02-26T02:30:34.284Z,0
2023-02-26T02:31:50.481Z,0
2023-02-26T02:33:06.678Z,0
2023-02-26T02:34:23.129Z,0
2023-02-26T02:35:31.000Z,0
2023-02-26T02:36:54.294Z,0
2023-02-26T02:38:09.507Z,0
2023-02-26T02:39:25.956Z,0
2023-02-26T02:40:41.899Z,0
2023-02-26T02:41:57.122Z,0
2023-02-26T02:43:05.000Z,0
2023-02-26T02:44:28.531Z,0
2023-02-26T02:45:44.982Z,0
2023-02-26T02:47:00.925Z,0
2023-02-26T02:48:17.121Z,0
2023-02-26T02:49:33.318Z,0
2023-02-26T02:50:49.515Z,0
2023-02-26T02:52:05.711Z,0
2023-02-26T02:53:21.907Z,0
2023-02-26T02:54:38.351Z,0
2023-02-26T02:55:46.000Z,0
2023-02-26T02:57:10.496Z,0
2023-02-26T02:58:26.692Z,0
2023-02-26T02:59:42.888Z,0
2023-02-26T03:00:58.102Z,0
2023-02-26T03:02:14.298Z,0
2023-02-26T03:03:22.000Z,0
2023-02-26T03:04:46.690Z,0
2023-02-26T03:06:02.887Z,0
2023-02-26T03:07:19.083Z,0
2023-02-26T03:08:26.000Z,0
2023-02-26T03:09:49.518Z,0
2023-02-26T03:11:04.741Z,0
2023-02-26T03:12:19.953Z,0
2023-02-26T03:13:28.000Z,0
2023-02-26T03:14:52.347Z,0
2023-02-26T03:16:08.544Z,0
2023-02-26T03:17:24.740Z,0
2023-02-26T03:18:40.937Z,0
2023-02-26T03:19:49.000Z,0
2023-02-26T03:21:05.000Z,0
2023-02-26T03:22:21.000Z,0
2023-02-26T03:23:38.000Z,0
2023-02-26T03:25:01.919Z,0
2023-02-26T03:26:18.117Z,0
2023-02-26T03:27:34.313Z,0
2023-02-26T03:28:41.000Z,0
2023-02-26T03:30:05.721Z,0
2023-02-26T03:31:21.915Z,0
2023-02-26T03:32:38.361Z,0
2023-02-26T03:33:54.304Z,0
2023-02-26T03:35:10.498Z,0
2023-02-26T03:36:26.692Z,0
2023-02-26T03:37:41.913Z,0
2023-02-26T03:38:49.000Z,0
2023-02-26T03:40:13.319Z,0
2023-02-26T03:41:29.513Z,0
2023-02-26T03:42:37.000Z,0
2023-02-26T03:44:00.194Z,0
2023-02-26T03:45:08.000Z,0
2023-02-26T03:46:32.585Z,0
2023-02-26T03:47:48.527Z,0
2023-02-26T03:49:04.966Z,0
2023-02-26T03:50:20.915Z,0
2023-02-26T03:51:37.109Z,0
2023-02-26T03:52:53.304Z,0
2023-02-26T03:54:09.498Z,0
2023-02-26T03:55:25.692Z,0
2023-02-26T03:56:41.886Z,0
2023-02-26T03:57:58.337Z,0
2023-02-26T03:59:14.275Z,0
2023-02-26T04:00:29.485Z,0
2023-02-26T04:01:45.680Z,0
2023-02-26T04:03:01.875Z,0
2023-02-26T04:04:18.070Z,0
2023-02-26T04:05:34.264Z,0
2023-02-26T04:06:50.458Z,0
2023-02-26T04:08:06.653Z,0
2023-02-26T04:09:21.874Z,0
2023-02-26T04:10:29.000Z,0
2023-02-26T04:11:53.279Z,0
2023-02-26T04:13:00.000Z,0
2023-02-26T04:14:23.961Z,0
2023-02-26T04:15:39.904Z,0
2023-02-26T04:16:48.000Z,0
2023-02-26T04:18:12.293Z,0
2023-02-26T04:19:28.488Z,0
2023-02-26T04:20:44.683Z,0
2023-02-26T04:22:00.877Z,0
2023-02-26T04:23:17.071Z,0
2023-02-26T04:24:33.265Z,0
2023-02-26T04:25:41.000Z,0
2023-02-26T04:27:05.654Z,0
2023-02-26T04:28:21.848Z,0
2023-02-26T04:29:38.043Z,0
2023-02-26T04:30:53.253Z,0
2023-02-26T04:32:09.448Z,0
2023-02-26T04:33:25.642Z,0
2023-02-26T04:34:41.836Z,0
2023-02-26T04:35:50.000Z,0
2023-02-26T04:37:14.225Z,0
2023-02-26T04:38:30.419Z,0
2023-02-26T04:39:45.651Z,0
2023-02-26T04:40:53.000Z,0
2023-02-26T04:41:52.000Z,0
2023-02-26T04:42:17.057Z,0
2023-02-26T04:43:33.501Z,0
2023-02-26T04:44:41.000Z,0
2023-02-26T04:46:05.639Z,0
2023-02-26T04:48:38.273Z,0
2023-02-26T04:49:54.222Z,0
2023-02-26T04:51:10.416Z,0
2023-02-26T04:52:26.870Z,0
2023-02-26T04:53:42.805Z,0
2023-02-26T04:54:58.999Z,0
2023-02-26T04:56:15.194Z,0
2023-02-26T04:57:22.000Z,0
2023-02-26T04:58:46.848Z,0
2023-02-26T05:00:02.792Z,0
2023-02-26T05:01:18.987Z,0
2023-02-26T05:02:35.181Z,0
2023-02-26T05:03:51.375Z,0
2023-02-26T05:05:07.815Z,0
2023-02-26T05:06:22.791Z,0
2023-02-26T05:07:38.254Z,0
2023-02-26T05:08:45.000Z,0
2023-02-26T05:10:08.680Z,0
2023-02-26T05:11:15.000Z,0
2023-02-26T05:12:14.000Z,0
2023-02-26T05:12:38.866Z,0
2023-02-26T05:13:55.060Z,0
2023-02-26T05:15:11.508Z,0
2023-02-26T05:16:27.448Z,0
2023-02-26T05:19:00.085Z,0
2023-02-26T05:20:16.279Z,0
2023-02-26T05:21:32.471Z,0
2023-02-26T05:22:48.666Z,0
2023-02-26T05:24:04.615Z,0
2023-02-26T05:25:20.809Z,0
2023-02-26T05:26:29.000Z,0
2023-02-26T05:27:53.198Z,0
2023-02-26T05:29:08.649Z,0
2023-02-26T05:30:24.854Z,0
2023-02-26T05:31:40.797Z,0
2023-02-26T05:32:49.000Z,0
2023-02-26T05:34:05.000Z,0
2023-02-26T05:35:21.000Z,0
2023-02-26T05:36:45.819Z,0
2023-02-26T05:38:00.795Z,0
2023-02-26T05:39:08.000Z,0
2023-02-26T05:40:32.201Z,0
2023-02-26T05:41:48.395Z,0
2023-02-26T05:43:04.589Z,0
2023-02-26T05:44:20.784Z,0
2023-02-26T05:45:37.230Z,0
2023-02-26T05:46:45.000Z,0
2023-02-26T05:48:09.366Z,0
2023-02-26T05:49:17.000Z,0
2023-02-26T05:50:41.755Z,0
2023-02-26T05:51:57.949Z,0
2023-02-26T05:53:06.000Z,4
2023-02-26T05:54:30.338Z,4
2023-02-26T05:55:45.549Z,0
2023-02-26T05:56:54.000Z,4
2023-02-26T05:58:17.937Z,4
2023-02-26T05:59:26.000Z,4
2023-02-26T06:00:50.326Z,8
2023-02-26T06:02:06.768Z,8
2023-02-26T06:03:22.714Z,12
2023-02-26T06:04:37.935Z,12
2023-02-26T06:05:53.146Z,16
2023-02-26T06:07:00.000Z,20
2023-02-26T06:08:23.578Z,24
2023-02-26T06:09:38.799Z,28
2023-02-26T06:10:54.010Z,40
2023-02-26T06:12:10.462Z,44
2023-02-26T06:13:26.398Z,52
2023-02-26T06:14:42.841Z,64
2023-02-26T06:15:59.042Z,76
2023-02-26T06:17:15.232Z,88
2023-02-26T06:18:31.175Z,104
2023-02-26T06:19:39.000Z,116
2023-02-26T06:21:03.564Z,136
2023-02-26T06:22:12.000Z,156
2023-02-26T06:23:35.952Z,176
2023-02-26T06:24:52.147Z,200
2023-02-26T06:26:08.342Z,220
2023-02-26T06:27:23.552Z,244
2023-02-26T06:28:39.747Z,272
2023-02-26T06:29:55.941Z,296
2023-02-26T06:31:12.378Z,328
2023-02-26T06:32:28.330Z,360
2023-02-26T06:33:36.000Z,384
2023-02-26T06:35:00.718Z,416
2023-02-26T06:36:08.000Z,448
2023-02-26T06:37:23.000Z,480
2023-02-26T06:38:46.615Z,512
2023-02-26T06:40:01.831Z,544
2023-02-26T06:41:17.776Z,580
2023-02-26T06:42:26.000Z,608
2023-02-26T06:43:50.164Z,640
2023-02-26T06:45:06.359Z,668
2023-02-26T06:46:22.553Z,696
2023-02-26T06:47:38.747Z,724
2023-02-26T06:48:47.000Z,760
2023-02-26T06:50:03.000Z,788
2023-02-26T06:51:27.330Z,820
2023-02-26T06:52:43.773Z,860
2023-02-26T06:53:59.718Z,892
2023-02-26T06:55:08.000Z,924
2023-02-26T06:56:31.123Z,992
2023-02-26T06:57:47.317Z,1004
2023-02-26T06:59:03.511Z,1020
2023-02-26T07:00:12.000Z,1060
2023-02-26T07:01:36.144Z,1072
2023-02-26T07:02:44.000Z,1084
2023-02-26T07:04:08.548Z,1108
2023-02-26T07:05:15.000Z,1176
2023-02-26T07:06:38.721Z,1240
2023-02-26T07:07:55.160Z,1260
2023-02-26T07:09:11.109Z,1232
2023-02-26T07:10:27.303Z,1288
2023-02-26T07:11:43.497Z,1344
2023-02-26T07:12:59.692Z,1316
2023-02-26T07:14:16.154Z,1376
2023-02-26T07:15:24.000Z,1404
2023-02-26T07:16:48.526Z,1488
2023-02-26T07:18:04.469Z,1536
2023-02-26T07:19:20.663Z,1556
2023-02-26T07:20:29.000Z,1580
2023-02-26T07:21:53.052Z,1600
2023-02-26T07:23:00.000Z,1620
2023-02-26T07:24:24.713Z,1648
2023-02-26T07:25:40.651Z,1820
2023-02-26T07:26:57.092Z,2124
2023-02-26T07:28:13.040Z,2388
2023-02-26T07:29:29.234Z,2516
2023-02-26T07:30:45.428Z,2700
2023-02-26T07:32:00.898Z,2748
2023-02-26T07:33:15.859Z,2896
2023-02-26T07:34:24.000Z,2988
2023-02-26T07:35:47.525Z,2884
2023-02-26T07:36:54.000Z,3184
2023-02-26T07:38:11.000Z,2560
2023-02-26T07:39:35.120Z,2744
2023-02-26T07:40:51.068Z,2832
2023-02-26T07:41:59.000Z,3864
2023-02-26T07:43:23.456Z,3176
2023-02-26T07:44:31.000Z,2832
2023-02-26T07:45:48.000Z,2504
2023-02-26T07:47:04.000Z,2368
2023-02-26T07:48:28.233Z,2188
2023-02-26T07:49:44.670Z,2076
2023-02-26T07:50:52.000Z,2020
2023-02-26T07:52:16.815Z,2012
2023-02-26T07:53:32.026Z,2008
2023-02-26T07:54:48.220Z,2012
2023-02-26T07:56:04.661Z,2016
2023-02-26T07:57:20.858Z,2036
2023-02-26T07:58:29.000Z,2052
2023-02-26T07:59:45.000Z,2076
2023-02-26T08:01:01.000Z,2096
2023-02-26T08:02:16.000Z,2092
2023-02-26T08:03:39.623Z,2100
2023-02-26T08:04:55.817Z,2124
2023-02-26T08:06:12.012Z,2140
2023-02-26T08:07:28.453Z,2160
2023-02-26T08:08:44.401Z,2196
2023-02-26T08:10:00.839Z,2180
2023-02-26T08:11:09.000Z,2200
2023-02-26T08:12:33.226Z,2204
2023-02-26T08:13:41.000Z,2192
2023-02-26T08:15:05.620Z,2204
2023-02-26T08:16:13.000Z,2224
2023-02-26T08:17:37.762Z,2272
2023-02-26T08:18:46.000Z,2236
2023-02-26T08:20:09.167Z,2208
2023-02-26T08:21:25.604Z,2220
2023-02-26T08:22:41.806Z,2236
2023-02-26T08:23:50.000Z,2252
2023-02-26T08:25:14.190Z,2300
2023-02-26T08:26:30.138Z,2432
2023-02-26T08:27:38.000Z,2788
2023-02-26T08:29:01.552Z,3568
2023-02-26T08:30:16.763Z,3920
2023-02-26T08:31:31.984Z,3988
2023-02-26T08:32:39.000Z,3984
2023-02-26T08:34:02.415Z,3728
2023-02-26T08:35:09.000Z,3616
2023-02-26T08:36:26.000Z,2984
2023-02-26T08:37:50.015Z,2616
2023-02-26T08:38:58.000Z,2512
2023-02-26T08:40:22.403Z,2584
2023-02-26T08:41:38.597Z,2380
2023-02-26T08:42:54.791Z,2188
2023-02-26T08:44:10.986Z,2328
2023-02-26T08:45:02.000Z,2328
2023-02-26T08:45:19.000Z,2336
2023-02-26T08:46:43.636Z,2328
2023-02-26T08:47:59.811Z,2328
2023-02-26T08:49:16.008Z,2332
2023-02-26T08:51:39.000Z,2340
2023-02-26T08:53:03.360Z,2344
2023-02-26T08:54:18.575Z,2340
2023-02-26T08:55:34.769Z,2352
2023-02-26T08:56:50.964Z,2352
2023-02-26T08:58:07.403Z,2356
2023-02-26T08:59:23.602Z,2340
2023-02-26T09:00:38.572Z,2348
2023-02-26T09:01:46.000Z,2356
2023-02-26T09:03:10.222Z,2348
2023-02-26T09:04:26.171Z,2364
2023-02-26T09:05:42.610Z,2372
2023-02-26T09:06:50.000Z,2384
2023-02-26T09:08:15.011Z,2416
2023-02-26T09:09:23.000Z,2444
2023-02-26T09:10:20.000Z,2468
2023-02-26T09:10:46.167Z,2456
2023-02-26T09:12:01.377Z,2436
2023-02-26T09:13:09.000Z,2472
2023-02-26T09:14:33.766Z,2268
2023-02-26T09:16:58.000Z,2492
2023-02-26T09:18:14.000Z,2524
2023-02-26T09:19:38.542Z,2500
2023-02-26T09:20:54.736Z,2516
2023-02-26T09:22:10.930Z,2428
2023-02-26T09:23:01.000Z,2664
2023-02-26T09:23:19.000Z,2492
2023-02-26T09:24:43.318Z,2592
2023-02-26T09:25:59.512Z,2744
2023-02-26T09:27:15.960Z,3252
2023-02-26T09:29:47.110Z,2604
2023-02-26T09:31:03.304Z,2456
2023-02-26T09:32:19.768Z,2696
2023-02-26T09:33:35.692Z,3460
2023-02-26T09:34:51.886Z,3600
2023-02-26T09:36:00.000Z,2912
2023-02-26T09:37:23.301Z,2956
2023-02-26T09:38:38.512Z,3608
2023-02-26T09:39:46.000Z,3828
2023-02-26T09:41:08.943Z,4648
2023-02-26T09:42:25.137Z,5128
2023-02-26T09:43:33.000Z,3208
2023-02-26T09:44:57.525Z,3700
2023-02-26T09:46:06.000Z,5908
2023-02-26T09:47:29.912Z,4068
2023-02-26T09:48:46.106Z,3264
2023-02-26T09:50:02.300Z,3032
2023-02-26T09:51:18.495Z,2744
2023-02-26T09:52:34.689Z,2644
2023-02-26T09:53:43.000Z,2700
2023-02-26T09:55:07.077Z,2592
2023-02-26T09:56:23.271Z,2640
2023-02-26T09:57:30.000Z,2756
2023-02-26T09:58:47.000Z,2800
2023-02-26T10:00:11.117Z,2652
2023-02-26T10:01:27.063Z,2680
2023-02-26T10:02:43.257Z,2736
2023-02-26T10:03:59.451Z,2688
2023-02-26T10:05:07.000Z,2916
2023-02-26T10:06:30.865Z,3056
2023-02-26T10:07:46.321Z,3292
2023-02-26T10:08:54.000Z,3040
2023-02-26T10:10:17.490Z,3628
2023-02-26T10:11:32.956Z,4828
2023-02-26T10:12:48.894Z,5852
2023-02-26T10:14:05.088Z,6252
2023-02-26T10:15:21.282Z,5928
2023-02-26T10:16:29.000Z,5816
2023-02-26T10:17:46.000Z,5088
2023-02-26T10:19:10.111Z,5104
2023-02-26T10:20:18.000Z,5660
2023-02-26T10:21:42.502Z,5636
2023-02-26T10:22:58.693Z,6244
2023-02-26T10:24:14.639Z,7024
2023-02-26T10:25:30.833Z,6444
2023-02-26T10:26:47.027Z,6904
2023-02-26T10:28:02.237Z,6000
2023-02-26T10:29:18.431Z,4480
2023-02-26T10:30:34.625Z,4344
2023-02-26T10:31:50.819Z,4448
2023-02-26T10:33:07.262Z,3572
2023-02-26T10:34:23.207Z,3736
2023-02-26T10:35:39.649Z,4060
2023-02-26T10:36:54.622Z,3936
2023-02-26T10:38:09.832Z,4412
2023-02-26T10:38:59.000Z,6892
2023-02-26T10:39:25.053Z,5056
2023-02-26T10:40:40.263Z,6052
2023-02-26T10:41:56.709Z,6740
2023-02-26T10:43:12.651Z,6232
2023-02-26T10:45:45.040Z,8504
2023-02-26T10:46:53.000Z,8892
2023-02-26T10:48:17.428Z,8400
2023-02-26T10:49:33.622Z,8544
2023-02-26T10:50:42.000Z,8332
2023-02-26T10:52:06.263Z,7864
2023-02-26T10:53:22.204Z,9112
2023-02-26T10:54:30.000Z,9464
2023-02-26T10:55:54.592Z,9484
2023-02-26T10:57:09.803Z,8932
2023-02-26T10:58:25.997Z,9264
2023-02-26T10:59:42.190Z,7868
2023-02-26T11:00:58.385Z,5416
2023-02-26T11:02:06.000Z,4816
2023-02-26T11:03:30.773Z,5540
2023-02-26T11:04:47.218Z,5744
2023-02-26T11:06:02.187Z,4084
2023-02-26T11:07:09.000Z,3388
2023-02-26T11:08:33.592Z,3304
2023-02-26T11:09:49.786Z,3164
2023-02-26T11:10:57.000Z,3152
2023-02-26T11:12:20.217Z,3436
2023-02-26T11:13:36.410Z,3996
2023-02-26T11:14:52.604Z,4988
2023-02-26T11:16:01.000Z,6580
2023-02-26T11:17:24.992Z,7204
2023-02-26T11:18:41.186Z,8100
2023-02-26T11:19:57.379Z,10448
2023-02-26T11:21:13.574Z,9760
2023-02-26T11:22:29.767Z,10820
2023-02-26T11:23:38.000Z,9628
2023-02-26T11:25:02.155Z,7316
2023-02-26T11:26:18.349Z,6904
2023-02-26T11:27:34.543Z,7364
2023-02-26T11:28:42.000Z,6060
2023-02-26T11:30:06.197Z,5924
2023-02-26T11:31:14.000Z,6144
2023-02-26T11:32:38.588Z,5648
2023-02-26T11:33:54.530Z,6016
2023-02-26T11:35:10.978Z,6400
2023-02-26T11:36:26.918Z,6072
2023-02-26T11:37:34.000Z,7492
2023-02-26T11:38:57.349Z,8024
2023-02-26T11:40:05.000Z,9876
2023-02-26T11:41:22.000Z,9004
2023-02-26T11:42:45.931Z,7888
2023-02-26T11:44:02.125Z,7920
2023-02-26T11:45:18.567Z,8024
2023-02-26T11:46:26.000Z,6688
2023-02-26T11:47:50.707Z,5388
2023-02-26T11:49:06.901Z,4640
2023-02-26T11:50:23.095Z,5452
2023-02-26T11:51:39.289Z,5464
2023-02-26T11:52:55.735Z,4456
2023-02-26T11:54:04.000Z,4080
2023-02-26T11:55:27.872Z,4200
2023-02-26T11:56:43.330Z,4884
2023-02-26T11:57:59.276Z,4864
2023-02-26T11:59:07.000Z,4220
2023-02-26T12:00:31.664Z,3328
2023-02-26T12:01:40.000Z,3496
2023-02-26T12:02:56.000Z,3512
2023-02-26T12:04:19.272Z,2916
2023-02-26T12:05:34.735Z,3212
2023-02-26T12:06:49.703Z,3448
2023-02-26T12:08:04.914Z,3644
2023-02-26T12:09:21.108Z,3884
2023-02-26T12:10:37.301Z,4260
2023-02-26T12:11:53.496Z,5724
2023-02-26T12:13:09.690Z,6876
2023-02-26T12:14:18.000Z,7924
2023-02-26T12:15:42.078Z,8972
2023-02-26T12:16:58.272Z,10036
2023-02-26T12:18:14.466Z,10316
2023-02-26T12:19:30.660Z,9544
2023-02-26T12:20:46.854Z,9052
2023-02-26T12:22:03.048Z,8656
2023-02-26T12:23:11.000Z,8064
2023-02-26T12:24:26.000Z,7908
2023-02-26T12:25:50.645Z,7684
2023-02-26T12:27:06.839Z,8104
2023-02-26T12:28:23.033Z,8148
2023-02-26T12:29:39.471Z,7344
2023-02-26T12:30:47.000Z,6788
2023-02-26T12:32:11.615Z,6984
2023-02-26T12:33:26.835Z,8836
2023-02-26T12:34:42.304Z,8956
2023-02-26T12:35:57.266Z,8540
2023-02-26T12:37:12.476Z,8488
2023-02-26T12:38:02.000Z,5956
2023-02-26T12:38:20.000Z,9008
2023-02-26T12:39:18.000Z,5604
2023-02-26T12:39:44.865Z,8544
2023-02-26T12:41:01.059Z,6776
2023-02-26T12:41:50.000Z,4928
2023-02-26T12:42:16.279Z,5352
2023-02-26T12:46:03.876Z,5488
2023-02-26T12:48:11.000Z,5988
2023-02-26T12:48:36.264Z,4532
2023-02-26T12:49:44.000Z,5044
2023-02-26T12:51:08.653Z,6568
2023-02-26T12:52:24.847Z,6680
2023-02-26T12:54:57.235Z,6240
2023-02-26T12:56:13.429Z,7004
2023-02-26T12:57:29.623Z,7048
2023-02-26T12:58:46.065Z,5408
2023-02-26T13:00:01.027Z,4832
2023-02-26T13:01:09.000Z,4948
2023-02-26T13:02:33.415Z,4856
2023-02-26T13:03:49.610Z,4900
2023-02-26T13:05:05.805Z,4884
2023-02-26T13:06:22.000Z,5960
2023-02-26T13:07:38.453Z,6780
2023-02-26T13:08:53.428Z,7320
2023-02-26T13:10:08.888Z,7984
2023-02-26T13:11:23.862Z,9368
2023-02-26T13:12:39.073Z,9224
2023-02-26T13:13:47.000Z,8584
2023-02-26T13:15:03.000Z,8528
2023-02-26T13:16:27.903Z,7948
2023-02-26T13:17:19.000Z,4972
2023-02-26T13:17:43.855Z,8932
2023-02-26T13:18:52.000Z,8952
2023-02-26T13:20:08.000Z,8816
2023-02-26T13:21:32.442Z,5856
2023-02-26T13:24:04.832Z,5168
2023-02-26T13:25:21.027Z,5488
2023-02-26T13:26:37.223Z,4588
2023-02-26T13:27:53.418Z,4484
2023-02-26T13:29:08.630Z,5408
2023-02-26T13:30:24.825Z,6828
2023-02-26T13:31:33.000Z,7264
2023-02-26T13:32:57.217Z,7668
2023-02-26T13:34:13.413Z,8316
2023-02-26T13:35:29.608Z,7108
2023-02-26T13:36:45.804Z,6880
2023-02-26T13:38:01.026Z,7380
2023-02-26T13:39:16.238Z,6760
2023-02-26T13:40:32.433Z,5832
2023-02-26T13:41:48.629Z,5824
2023-02-26T13:42:56.000Z,5892
2023-02-26T13:44:19.063Z,5544
2023-02-26T13:45:35.258Z,5400
2023-02-26T13:46:51.707Z,5600
2023-02-26T13:47:42.000Z,5968
2023-02-26T13:48:07.650Z,5548
2023-02-26T13:49:23.846Z,5984
2023-02-26T13:50:40.041Z,6484
2023-02-26T13:51:56.238Z,6060
2023-02-26T13:54:20.000Z,6252
2023-02-26T13:55:44.825Z,5688
2023-02-26T13:57:01.021Z,5844
2023-02-26T13:58:17.216Z,6252
2023-02-26T13:59:33.412Z,5192
2023-02-26T14:00:40.000Z,5524
2023-02-26T14:02:04.820Z,5908
2023-02-26T14:03:21.016Z,5128
2023-02-26T14:04:37.212Z,4744
2023-02-26T14:05:53.408Z,4832
2023-02-26T14:07:09.604Z,4700
2023-02-26T14:08:25.800Z,4372
2023-02-26T14:09:41.022Z,4732
2023-02-26T14:10:48.000Z,5456
2023-02-26T14:12:12.430Z,5372
2023-02-26T14:13:28.626Z,5428
2023-02-26T14:14:44.822Z,4480
2023-02-26T14:16:01.018Z,5852
2023-02-26T14:17:09.000Z,6472
2023-02-26T14:18:33.409Z,5092
2023-02-26T14:19:41.000Z,4012
2023-02-26T14:21:05.801Z,5356
2023-02-26T14:22:21.998Z,5248
2023-02-26T14:23:30.000Z,5312
2023-02-26T14:24:54.390Z,5168
2023-02-26T14:26:02.000Z,5164
2023-02-26T14:27:18.000Z,3952
2023-02-26T14:28:41.992Z,3388
2023-02-26T14:29:58.188Z,2884
2023-02-26T14:31:14.384Z,3544
2023-02-26T14:32:22.000Z,4416
2023-02-26T14:33:39.000Z,4376
2023-02-26T14:34:55.000Z,4820
2023-02-26T14:36:18.445Z,3992
2023-02-26T14:37:33.406Z,3584
2023-02-26T14:38:40.000Z,3068
2023-02-26T14:40:03.840Z,3000
2023-02-26T14:41:20.284Z,2600
2023-02-26T14:42:35.258Z,2120
2023-02-26T14:43:42.000Z,2052
2023-02-26T14:45:06.912Z,2168
2023-02-26T14:46:22.861Z,2252
2023-02-26T14:47:39.058Z,2392
2023-02-26T14:48:55.253Z,2560
2023-02-26T14:50:03.000Z,2812
2023-02-26T14:51:27.645Z,3072
2023-02-26T14:52:43.841Z,3148
2023-02-26T14:54:00.037Z,2844
2023-02-26T14:55:16.233Z,2920
2023-02-26T14:56:24.000Z,2756
2023-02-26T14:57:48.625Z,2616
2023-02-26T14:59:04.821Z,2972
2023-02-26T15:00:20.033Z,3644
2023-02-26T15:01:36.228Z,4032
2023-02-26T15:02:52.424Z,4696
2023-02-26T15:04:00.000Z,5212
2023-02-26T15:05:24.816Z,4292
2023-02-26T15:06:41.012Z,4356
2023-02-26T15:07:57.208Z,4116
2023-02-26T15:09:12.430Z,3168
2023-02-26T15:10:27.642Z,2700
2023-02-26T15:11:36.000Z,2172
2023-02-26T15:13:00.034Z,2020
2023-02-26T15:14:16.230Z,2152
2023-02-26T15:15:32.426Z,2176
2023-02-26T15:16:40.000Z,2068
2023-02-26T15:18:05.065Z,2032
2023-02-26T15:19:21.014Z,2180
2023-02-26T15:20:37.210Z,2472
2023-02-26T15:21:45.000Z,2472
2023-02-26T15:23:09.847Z,3020
2023-02-26T15:24:25.797Z,3556
2023-02-26T15:25:34.000Z,3596
2023-02-26T15:26:57.205Z,3036
2023-02-26T15:28:13.402Z,3020
2023-02-26T15:29:29.597Z,3292
2023-02-26T15:30:45.793Z,3488
2023-02-26T15:32:01.989Z,3212
2023-02-26T15:33:10.000Z,3396
2023-02-26T15:34:34.381Z,3460
2023-02-26T15:35:41.000Z,3020
2023-02-26T15:37:04.816Z,2776
2023-02-26T15:38:12.000Z,2536
2023-02-26T15:39:35.250Z,2512
2023-02-26T15:40:50.473Z,2236
2023-02-26T15:41:57.000Z,2176
2023-02-26T15:43:21.881Z,2304
2023-02-26T15:44:38.076Z,2616
2023-02-26T15:45:46.000Z,2648
2023-02-26T15:47:10.468Z,2580
2023-02-26T15:48:26.664Z,2708
2023-02-26T15:49:42.860Z,2700
2023-02-26T15:50:51.000Z,2468
2023-02-26T15:52:15.252Z,2196
2023-02-26T15:53:31.448Z,1916
2023-02-26T15:54:21.000Z,1924
2023-02-26T15:54:39.000Z,1808
2023-02-26T15:56:04.094Z,1664
2023-02-26T15:57:20.036Z,1676
2023-02-26T15:58:27.000Z,1832
2023-02-26T16:01:07.885Z,1840
2023-02-26T16:02:23.835Z,1868
2023-02-26T16:03:40.281Z,2012
2023-02-26T16:04:56.481Z,2172
2023-02-26T16:06:12.424Z,2116
2023-02-26T16:07:27.896Z,1976
2023-02-26T16:08:42.857Z,1804
2023-02-26T16:09:59.053Z,1644
2023-02-26T16:11:15.249Z,1620
2023-02-26T16:12:31.445Z,1616
2023-02-26T16:13:47.891Z,1596
2023-02-26T16:14:56.000Z,1716
2023-02-26T16:16:20.033Z,1836
2023-02-26T16:17:36.229Z,1504
2023-02-26T16:18:52.425Z,1276
2023-02-26T16:20:08.620Z,1204
2023-02-26T16:21:25.061Z,1216
2023-02-26T16:22:41.270Z,1168
2023-02-26T16:23:57.209Z,1108
2023-02-26T16:25:12.420Z,1084
2023-02-26T16:26:20.000Z,1064
2023-02-26T16:27:44.812Z,1044
2023-02-26T16:28:53.000Z,1024
2023-02-26T16:30:09.000Z,992
2023-02-26T16:31:33.400Z,968
2023-02-26T16:32:41.000Z,964
2023-02-26T16:34:05.062Z,940
2023-02-26T16:35:12.000Z,920
2023-02-26T16:36:36.227Z,896
2023-02-26T16:37:52.423Z,868
2023-02-26T16:39:08.619Z,832
2023-02-26T16:40:17.000Z,800
2023-02-26T16:41:41.259Z,772
2023-02-26T16:42:57.206Z,736
2023-02-26T16:44:13.403Z,704
2023-02-26T16:45:29.598Z,668
2023-02-26T16:46:46.045Z,636
2023-02-26T16:48:01.990Z,604
2023-02-26T16:49:10.000Z,564
2023-02-26T16:50:34.382Z,528
2023-02-26T16:51:49.594Z,496
2023-02-26T16:52:58.000Z,464
2023-02-26T16:54:22.237Z,436
2023-02-26T16:55:38.181Z,404
2023-02-26T16:56:54.377Z,376
2023-02-26T16:58:10.573Z,348
2023-02-26T16:59:26.769Z,320
2023-02-26T17:00:41.990Z,292
2023-02-26T17:01:57.203Z,268
2023-02-26T17:03:04.000Z,240
2023-02-26T17:04:27.637Z,220
2023-02-26T17:05:42.859Z,196
2023-02-26T17:06:58.071Z,172
2023-02-26T17:08:14.267Z,156
2023-02-26T17:09:30.463Z,136
2023-02-26T17:10:38.000Z,120
2023-02-26T17:12:03.107Z,100
2023-02-26T17:13:19.051Z,88
2023-02-26T17:14:35.247Z,72
2023-02-26T17:15:51.443Z,64
2023-02-26T17:17:07.639Z,56
2023-02-26T17:18:16.000Z,44
2023-02-26T17:19:40.031Z,40
2023-02-26T17:20:56.226Z,32
2023-02-26T17:22:12.423Z,24
2023-02-26T17:23:27.639Z,20
2023-02-26T17:24:44.094Z,16
2023-02-26T17:26:00.283Z,12
2023-02-26T17:27:08.000Z,12
2023-02-26T17:28:32.672Z,8
2023-02-26T17:29:40.000Z,8
2023-02-26T17:31:04.815Z,4
2023-02-26T17:32:20.038Z,4
2023-02-26T17:33:27.000Z,4